sensor_id;sensor_type;location;lat;lon;timestamp;pressure;altitude;pressure_sealevel;temperature;humidity
18436;BME280;9346;52.006;4.720;2024-01-25T00:02:21;102707.78;;;9.48;100.00
18436;BME280;9346;52.006;4.720;2024-01-25T00:04:50;102699.75;;;9.46;100.00
18436;BME280;9346;52.006;4.720;2024-01-25T00:07:16;102701.88;;;9.44;100.00
18436;BME280;9346;52.006;4.720;2024-01-25T00:09:43;102704.00;;;9.42;100.00
18436;BME280;9346;52.006;4.720;2024-01-25T00:12:10;102692.63;;;9.39;100.00
18436;BME280;9346;52.006;4.720;2024-01-25T00:14:37;102698.56;;;9.36;100.00
18436;BME280;9346;52.006;4.720;2024-01-25T00:17:03;102701.53;;;9.34;100.00
18436;BME280;9346;52.006;4.720;2024-01-25T00:19:30;102698.78;;;9.34;100.00
18436;BME280;9346;52.006;4.720;2024-01-25T00:21:59;102711.06;;;9.32;100.00
18436;BME280;9346;52.006;4.720;2024-01-25T00:24:26;102703.03;;;9.30;100.00
18436;BME280;9346;52.006;4.720;2024-01-25T00:26:54;102699.44;;;9.30;100.00
18436;BME280;9346;52.006;4.720;2024-01-25T00:29:20;102696.28;;;9.26;100.00
18436;BME280;9346;52.006;4.720;2024-01-25T00:31:47;102695.03;;;9.22;100.00
18436;BME280;9346;52.006;4.720;2024-01-25T00:34:14;102697.19;;;9.20;100.00
18436;BME280;9346;52.006;4.720;2024-01-25T00:36:42;102701.19;;;9.18;100.00
18436;BME280;9346;52.006;4.720;2024-01-25T00:39:11;102697.84;;;9.16;100.00
18436;BME280;9346;52.006;4.720;2024-01-25T00:41:38;102703.78;;;9.13;100.00
18436;BME280;9346;52.006;4.720;2024-01-25T00:44:07;102698.28;;;9.13;100.00
18436;BME280;9346;52.006;4.720;2024-01-25T00:46:35;102695.75;;;9.11;100.00
18436;BME280;9346;52.006;4.720;2024-01-25T00:49:02;102687.50;;;9.11;100.00
18436;BME280;9346;52.006;4.720;2024-01-25T00:51:29;102690.47;;;9.09;100.00
18436;BME280;9346;52.006;4.720;2024-01-25T00:53:57;102704.66;;;9.06;100.00
18436;BME280;9346;52.006;4.720;2024-01-25T00:56:27;102708.47;;;9.05;100.00
18436;BME280;9346;52.006;4.720;2024-01-25T00:58:54;102715.00;;;9.04;100.00
18436;BME280;9346;52.006;4.720;2024-01-25T01:01:21;102711.88;;;9.01;100.00
18436;BME280;9346;52.006;4.720;2024-01-25T01:03:51;102718.41;;;9.00;100.00
18436;BME280;9346;52.006;4.720;2024-01-25T01:06:19;102724.13;;;8.98;100.00
18436;BME280;9346;52.006;4.720;2024-01-25T01:08:46;102719.94;;;8.96;100.00
18436;BME280;9346;52.006;4.720;2024-01-25T01:11:13;102715.50;;;8.95;100.00
18436;BME280;9346;52.006;4.720;2024-01-25T01:13:41;102726.72;;;8.93;100.00
18436;BME280;9346;52.006;4.720;2024-01-25T01:16:08;102737.91;;;8.92;100.00
18436;BME280;9346;52.006;4.720;2024-01-25T01:18:35;102740.25;;;8.88;100.00
18436;BME280;9346;52.006;4.720;2024-01-25T01:21:04;102742.38;;;8.86;100.00
18436;BME280;9346;52.006;4.720;2024-01-25T01:23:30;102750.84;;;8.85;100.00
18436;BME280;9346;52.006;4.720;2024-01-25T01:25:57;102750.00;;;8.84;100.00
18436;BME280;9346;52.006;4.720;2024-01-25T01:28:24;102744.72;;;8.83;100.00
18436;BME280;9346;52.006;4.720;2024-01-25T01:30:52;102743.25;;;8.80;100.00
18436;BME280;9346;52.006;4.720;2024-01-25T01:33:19;102751.72;;;8.79;100.00
18436;BME280;9346;52.006;4.720;2024-01-25T01:35:46;102754.69;;;8.77;100.00
18436;BME280;9346;52.006;4.720;2024-01-25T01:38:14;102755.97;;;8.75;100.00
18436;BME280;9346;52.006;4.720;2024-01-25T01:40:41;102760.81;;;8.73;100.00
18436;BME280;9346;52.006;4.720;2024-01-25T01:43:19;102770.94;;;8.72;100.00
18436;BME280;9346;52.006;4.720;2024-01-25T01:45:46;102767.38;;;8.72;100.00
18436;BME280;9346;52.006;4.720;2024-01-25T01:48:15;102762.09;;;8.70;100.00
18436;BME280;9346;52.006;4.720;2024-01-25T01:50:43;102766.75;;;8.70;100.00
18436;BME280;9346;52.006;4.720;2024-01-25T01:53:10;102767.81;;;8.69;100.00
18436;BME280;9346;52.006;4.720;2024-01-25T01:55:37;102762.53;;;8.67;100.00
18436;BME280;9346;52.006;4.720;2024-01-25T01:58:06;102767.81;;;8.62;100.00
18436;BME280;9346;52.006;4.720;2024-01-25T02:00:33;102760.84;;;8.60;100.00
18436;BME280;9346;52.006;4.720;2024-01-25T02:03:00;102766.56;;;8.58;100.00
18436;BME280;9346;52.006;4.720;2024-01-25T02:05:30;102765.72;;;8.58;100.00
18436;BME280;9346;52.006;4.720;2024-01-25T02:07:57;102764.88;;;8.57;100.00
18436;BME280;9346;52.006;4.720;2024-01-25T02:10:23;102772.91;;;8.59;100.00
18436;BME280;9346;52.006;4.720;2024-01-25T02:12:53;102773.56;;;8.54;100.00
18436;BME280;9346;52.006;4.720;2024-01-25T02:15:20;102781.16;;;8.52;100.00
18436;BME280;9346;52.006;4.720;2024-01-25T02:17:46;102782.66;;;8.48;100.00
18436;BME280;9346;52.006;4.720;2024-01-25T02:20:13;102782.66;;;8.48;100.00
18436;BME280;9346;52.006;4.720;2024-01-25T02:22:41;102785.16;;;8.43;100.00
18436;BME280;9346;52.006;4.720;2024-01-25T02:25:08;102776.31;;;8.41;100.00
18436;BME280;9346;52.006;4.720;2024-01-25T02:27:35;102785.59;;;8.40;100.00
18436;BME280;9346;52.006;4.720;2024-01-25T02:30:05;102783.91;;;8.39;100.00
18436;BME280;9346;52.006;4.720;2024-01-25T02:32:32;102778.44;;;8.39;100.00
18436;BME280;9346;52.006;4.720;2024-01-25T02:34:59;102780.97;;;8.41;100.00
18436;BME280;9346;52.006;4.720;2024-01-25T02:37:25;102783.06;;;8.39;100.00
18436;BME280;9346;52.006;4.720;2024-01-25T02:39:54;102777.78;;;8.37;100.00
18436;BME280;9346;52.006;4.720;2024-01-25T02:42:20;102772.50;;;8.36;100.00
18436;BME280;9346;52.006;4.720;2024-01-25T02:44:47;102774.63;;;8.34;100.00
18436;BME280;9346;52.006;4.720;2024-01-25T02:47:14;102782.22;;;8.32;100.00
18436;BME280;9346;52.006;4.720;2024-01-25T02:49:41;102790.88;;;8.29;100.00
18436;BME280;9346;52.006;4.720;2024-01-25T02:52:07;102804.22;;;8.25;100.00
18436;BME280;9346;52.006;4.720;2024-01-25T02:54:35;102797.41;;;8.21;100.00
18436;BME280;9346;52.006;4.720;2024-01-25T02:57:04;102812.41;;;8.19;100.00
18436;BME280;9346;52.006;4.720;2024-01-25T02:59:31;102816.22;;;8.18;100.00
18436;BME280;9346;52.006;4.720;2024-01-25T03:01:58;102818.53;;;8.14;100.00
18436;BME280;9346;52.006;4.720;2024-01-25T03:04:24;102811.34;;;8.13;100.00
18436;BME280;9346;52.006;4.720;2024-01-25T03:06:51;102802.47;;;8.11;100.00
18436;BME280;9346;52.006;4.720;2024-01-25T03:09:18;102807.13;;;8.11;100.00
18436;BME280;9346;52.006;4.720;2024-01-25T03:11:46;102802.91;;;8.08;100.00
18436;BME280;9346;52.006;4.720;2024-01-25T03:14:14;102806.72;;;8.07;100.00
18436;BME280;9346;52.006;4.720;2024-01-25T03:16:41;102793.41;;;8.04;100.00
18436;BME280;9346;52.006;4.720;2024-01-25T03:19:08;102789.84;;;8.04;100.00
18436;BME280;9346;52.006;4.720;2024-01-25T03:21:35;102785.16;;;8.04;100.00
18436;BME280;9346;52.006;4.720;2024-01-25T03:24:02;102788.53;;;8.00;100.00
18436;BME280;9346;52.006;4.720;2024-01-25T03:26:28;102786.00;;;7.98;100.00
18436;BME280;9346;52.006;4.720;2024-01-25T03:28:55;102787.69;;;7.93;100.00
18436;BME280;9346;52.006;4.720;2024-01-25T03:31:23;102790.44;;;7.93;100.00
18436;BME280;9346;52.006;4.720;2024-01-25T03:33:50;102788.13;;;7.90;100.00
18436;BME280;9346;52.006;4.720;2024-01-25T03:36:16;102793.00;;;7.88;100.00
18436;BME280;9346;52.006;4.720;2024-01-25T03:38:43;102790.66;;;7.85;100.00
18436;BME280;9346;52.006;4.720;2024-01-25T03:41:10;102791.06;;;7.82;100.00
18436;BME280;9346;52.006;4.720;2024-01-25T03:43:36;102793.38;;;7.78;100.00
18436;BME280;9346;52.006;4.720;2024-01-25T03:46:03;102794.66;;;7.76;100.00
18436;BME280;9346;52.006;4.720;2024-01-25T03:48:32;102783.03;;;7.74;100.00
18436;BME280;9346;52.006;4.720;2024-01-25T03:50:59;102784.31;;;7.71;100.00
18436;BME280;9346;52.006;4.720;2024-01-25T03:53:26;102777.34;;;7.69;100.00
18436;BME280;9346;52.006;4.720;2024-01-25T03:55:52;102786.81;;;7.66;100.00
18436;BME280;9346;52.006;4.720;2024-01-25T03:58:19;102787.03;;;7.65;100.00
18436;BME280;9346;52.006;4.720;2024-01-25T04:00:46;102789.97;;;7.63;100.00
18436;BME280;9346;52.006;4.720;2024-01-25T04:03:13;102794.84;;;7.61;100.00
18436;BME280;9346;52.006;4.720;2024-01-25T04:05:42;102797.13;;;7.58;100.00
18436;BME280;9346;52.006;4.720;2024-01-25T04:08:08;102799.06;;;7.57;100.00
18436;BME280;9346;52.006;4.720;2024-01-25T04:10:35;102793.78;;;7.56;100.00
18436;BME280;9346;52.006;4.720;2024-01-25T04:13:02;102785.34;;;7.57;100.00
18436;BME280;9346;52.006;4.720;2024-01-25T04:15:29;102790.19;;;7.55;100.00
18436;BME280;9346;52.006;4.720;2024-01-25T04:17:56;102791.25;;;7.54;100.00
18436;BME280;9346;52.006;4.720;2024-01-25T04:20:23;102797.75;;;7.53;100.00
18436;BME280;9346;52.006;4.720;2024-01-25T04:22:51;102800.91;;;7.50;100.00
18436;BME280;9346;52.006;4.720;2024-01-25T04:25:18;102791.81;;;7.43;100.00
18436;BME280;9346;52.006;4.720;2024-01-25T04:27:45;102781.47;;;7.39;100.00
18436;BME280;9346;52.006;4.720;2024-01-25T04:30:12;102785.91;;;7.33;100.00
18436;BME280;9346;52.006;4.720;2024-01-25T04:32:39;102786.50;;;7.29;100.00
18436;BME280;9346;52.006;4.720;2024-01-25T04:35:08;102789.03;;;7.24;100.00
18436;BME280;9346;52.006;4.720;2024-01-25T04:37:34;102786.06;;;7.19;100.00
18436;BME280;9346;52.006;4.720;2024-01-25T04:40:03;102790.25;;;7.15;100.00
18436;BME280;9346;52.006;4.720;2024-01-25T04:42:31;102783.72;;;7.16;100.00
18436;BME280;9346;52.006;4.720;2024-01-25T04:44:58;102792.16;;;7.14;100.00
18436;BME280;9346;52.006;4.720;2024-01-25T04:47:24;102785.59;;;7.09;100.00
18436;BME280;9346;52.006;4.720;2024-01-25T04:49:51;102787.06;;;7.11;100.00
18436;BME280;9346;52.006;4.720;2024-01-25T04:52:18;102785.59;;;7.09;100.00
18436;BME280;9346;52.006;4.720;2024-01-25T04:54:44;102781.59;;;7.11;100.00
18436;BME280;9346;52.006;4.720;2024-01-25T04:57:13;102786.44;;;7.09;100.00
18436;BME280;9346;52.006;4.720;2024-01-25T04:59:39;102796.34;;;7.10;100.00
18436;BME280;9346;52.006;4.720;2024-01-25T05:02:06;102801.19;;;7.08;100.00
18436;BME280;9346;52.006;4.720;2024-01-25T05:04:33;102806.66;;;7.02;100.00
18436;BME280;9346;52.006;4.720;2024-01-25T05:07:00;102813.53;;;6.91;100.00
18436;BME280;9346;52.006;4.720;2024-01-25T05:09:27;102818.28;;;6.76;100.00
18436;BME280;9346;52.006;4.720;2024-01-25T05:11:54;102808.50;;;6.60;100.00
18436;BME280;9346;52.006;4.720;2024-01-25T05:14:25;102818.78;;;6.52;100.00
18436;BME280;9346;52.006;4.720;2024-01-25T05:16:52;102820.22;;;6.48;100.00
18436;BME280;9346;52.006;4.720;2024-01-25T05:19:19;102828.66;;;6.46;100.00
18436;BME280;9346;52.006;4.720;2024-01-25T05:21:45;102833.94;;;6.48;100.00
18436;BME280;9346;52.006;4.720;2024-01-25T05:24:12;102845.28;;;6.45;100.00
18436;BME280;9346;52.006;4.720;2024-01-25T05:26:40;102848.22;;;6.43;100.00
18436;BME280;9346;52.006;4.720;2024-01-25T05:29:07;102847.53;;;6.41;100.00
18436;BME280;9346;52.006;4.720;2024-01-25T05:31:35;102844.63;;;6.43;100.00
18436;BME280;9346;52.006;4.720;2024-01-25T05:34:02;102861.22;;;6.41;100.00
18436;BME280;9346;52.006;4.720;2024-01-25T05:36:29;102860.41;;;6.41;100.00
18436;BME280;9346;52.006;4.720;2024-01-25T05:38:56;102862.69;;;6.37;100.00
18436;BME280;9346;52.006;4.720;2024-01-25T05:41:22;102849.34;;;6.28;100.00
18436;BME280;9346;52.006;4.720;2024-01-25T05:43:49;102840.47;;;6.26;100.00
18436;BME280;9346;52.006;4.720;2024-01-25T05:46:16;102830.59;;;6.25;100.00
18436;BME280;9346;52.006;4.720;2024-01-25T05:48:44;102825.75;;;6.27;100.00
18436;BME280;9346;52.006;4.720;2024-01-25T05:51:11;102832.06;;;6.27;100.00
18436;BME280;9346;52.006;4.720;2024-01-25T05:53:39;102832.50;;;6.31;100.00
18436;BME280;9346;52.006;4.720;2024-01-25T05:56:06;102827.69;;;6.33;100.00
18436;BME280;9346;52.006;4.720;2024-01-25T05:58:33;102824.75;;;6.34;100.00
18436;BME280;9346;52.006;4.720;2024-01-25T06:00:59;102826.00;;;6.32;100.00
18436;BME280;9346;52.006;4.720;2024-01-25T06:03:26;102819.88;;;6.30;100.00
18436;BME280;9346;52.006;4.720;2024-01-25T06:05:55;102827.03;;;6.31;100.00
18436;BME280;9346;52.006;4.720;2024-01-25T06:08:21;102830.00;;;6.29;100.00
18436;BME280;9346;52.006;4.720;2024-01-25T06:10:48;102835.19;;;6.24;100.00
18436;BME280;9346;52.006;4.720;2024-01-25T06:13:15;102838.94;;;6.17;100.00
18436;BME280;9346;52.006;4.720;2024-01-25T06:15:41;102840.38;;;6.13;100.00
18436;BME280;9346;52.006;4.720;2024-01-25T06:18:08;102842.00;;;6.07;100.00
18436;BME280;9346;52.006;4.720;2024-01-25T06:20:35;102844.66;;;6.01;100.00
18436;BME280;9346;52.006;4.720;2024-01-25T06:23:04;102842.31;;;5.98;100.00
18436;BME280;9346;52.006;4.720;2024-01-25T06:25:30;102839.97;;;5.95;100.00
18436;BME280;9346;52.006;4.720;2024-01-25T06:27:57;102842.72;;;5.95;100.00
18436;BME280;9346;52.006;4.720;2024-01-25T06:30:24;102839.97;;;5.95;100.00
18436;BME280;9346;52.006;4.720;2024-01-25T06:32:54;102843.56;;;5.95;100.00
18436;BME280;9346;52.006;4.720;2024-01-25T06:35:21;102841.03;;;5.94;100.00
18436;BME280;9346;52.006;4.720;2024-01-25T06:37:48;102834.06;;;5.91;100.00
18436;BME280;9346;52.006;4.720;2024-01-25T06:40:17;102835.09;;;5.90;100.00
18436;BME280;9346;52.006;4.720;2024-01-25T06:42:43;102839.94;;;5.88;100.00
18436;BME280;9346;52.006;4.720;2024-01-25T06:45:10;102836.34;;;5.88;100.00
18436;BME280;9346;52.006;4.720;2024-01-25T06:47:37;102839.47;;;5.85;100.00
18436;BME280;9346;52.006;4.720;2024-01-25T06:50:05;102831.66;;;5.82;100.00
18436;BME280;9346;52.006;4.720;2024-01-25T06:52:33;102824.66;;;5.79;100.00
18436;BME280;9346;52.006;4.720;2024-01-25T06:54:59;102834.53;;;5.80;100.00
18436;BME280;9346;52.006;4.720;2024-01-25T06:57:28;102835.78;;;5.78;100.00
18436;BME280;9346;52.006;4.720;2024-01-25T06:59:55;102835.78;;;5.78;100.00
18436;BME280;9346;52.006;4.720;2024-01-25T07:02:21;102829.03;;;5.74;100.00
18436;BME280;9346;52.006;4.720;2024-01-25T07:04:48;102824.03;;;5.63;100.00
18436;BME280;9346;52.006;4.720;2024-01-25T07:07:18;102836.75;;;5.49;100.00
18436;BME280;9346;52.006;4.720;2024-01-25T07:09:44;102832.88;;;5.44;100.00
18436;BME280;9346;52.006;4.720;2024-01-25T07:12:11;102837.31;;;5.45;100.00
18436;BME280;9346;52.006;4.720;2024-01-25T07:14:39;102845.53;;;5.45;100.00
18436;BME280;9346;52.006;4.720;2024-01-25T07:17:06;102842.13;;;5.43;100.00
18436;BME280;9346;52.006;4.720;2024-01-25T07:19:33;102833.91;;;5.43;100.00
18436;BME280;9346;52.006;4.720;2024-01-25T07:21:59;102839.19;;;5.44;100.00
18436;BME280;9346;52.006;4.720;2024-01-25T07:24:26;102845.53;;;5.45;100.00
18436;BME280;9346;52.006;4.720;2024-01-25T07:26:53;102855.34;;;5.39;100.00
18436;BME280;9346;52.006;4.720;2024-01-25T07:29:19;102854.38;;;5.32;100.00
18436;BME280;9346;52.006;4.720;2024-01-25T07:31:49;102857.72;;;5.28;100.00
18436;BME280;9346;52.006;4.720;2024-01-25T07:34:15;102864.88;;;5.29;100.00
18436;BME280;9346;52.006;4.720;2024-01-25T07:36:42;102858.16;;;5.31;100.00
18436;BME280;9346;52.006;4.720;2024-01-25T07:39:09;102855.25;;;5.33;100.00
18436;BME280;9346;52.006;4.720;2024-01-25T07:41:37;102852.50;;;5.33;100.00
18436;BME280;9346;52.006;4.720;2024-01-25T07:44:04;102851.47;;;5.34;100.00
18436;BME280;9346;52.006;4.720;2024-01-25T07:46:31;102850.44;;;5.35;100.00
18436;BME280;9346;52.006;4.720;2024-01-25T07:49:00;102857.31;;;5.31;100.00
18436;BME280;9346;52.006;4.720;2024-01-25T07:51:26;102849.72;;;5.26;100.00
18436;BME280;9346;52.006;4.720;2024-01-25T07:53:54;102859.31;;;5.22;100.00
18436;BME280;9346;52.006;4.720;2024-01-25T07:56:20;102857.44;;;5.23;100.00
18436;BME280;9346;52.006;4.720;2024-01-25T07:58:48;102849.25;;;5.23;100.00
18436;BME280;9346;52.006;4.720;2024-01-25T08:01:17;102864.19;;;5.27;100.00
18436;BME280;9346;52.006;4.720;2024-01-25T08:03:46;102855.81;;;5.28;100.00
18436;BME280;9346;52.006;4.720;2024-01-25T08:06:15;102853.56;;;5.32;100.00
18436;BME280;9346;52.006;4.720;2024-01-25T08:08:42;102833.38;;;5.33;100.00
18436;BME280;9346;52.006;4.720;2024-01-25T08:11:08;102836.97;;;5.33;100.00
18436;BME280;9346;52.006;4.720;2024-01-25T08:13:35;102844.78;;;5.36;100.00
18436;BME280;9346;52.006;4.720;2024-01-25T08:16:02;102844.22;;;5.41;100.00
18436;BME280;9346;52.006;4.720;2024-01-25T08:18:28;102837.31;;;5.45;100.00
18436;BME280;9346;52.006;4.720;2024-01-25T08:20:55;102826.38;;;5.45;100.00
18436;BME280;9346;52.006;4.720;2024-01-25T08:23:24;102820.91;;;5.45;100.00
18436;BME280;9346;52.006;4.720;2024-01-25T08:25:50;102843.63;;;5.45;100.00
18436;BME280;9346;52.006;4.720;2024-01-25T08:28:17;102851.44;;;5.48;100.00
18436;BME280;9346;52.006;4.720;2024-01-25T08:30:45;102852.09;;;5.50;100.00
18436;BME280;9346;52.006;4.720;2024-01-25T08:33:12;102854.63;;;5.52;100.00
18436;BME280;9346;52.006;4.720;2024-01-25T08:35:39;102855.31;;;5.54;100.00
18436;BME280;9346;52.006;4.720;2024-01-25T08:38:07;102854.06;;;5.56;100.00
18436;BME280;9346;52.006;4.720;2024-01-25T08:40:35;102863.38;;;5.62;100.00
18436;BME280;9346;52.006;4.720;2024-01-25T08:43:02;102861.50;;;5.62;100.00
18436;BME280;9346;52.006;4.720;2024-01-25T08:45:30;102869.50;;;5.64;100.00
18436;BME280;9346;52.006;4.720;2024-01-25T08:47:56;102862.13;;;5.64;100.00
18436;BME280;9346;52.006;4.720;2024-01-25T08:50:23;102857.91;;;5.62;100.00
18436;BME280;9346;52.006;4.720;2024-01-25T08:52:50;102860.16;;;5.58;100.00
18436;BME280;9346;52.006;4.720;2024-01-25T08:55:16;102861.69;;;5.61;100.00
18436;BME280;9346;52.006;4.720;2024-01-25T08:57:45;102871.19;;;5.65;100.00
18436;BME280;9346;52.006;4.720;2024-01-25T09:00:13;102861.34;;;5.70;100.00
18436;BME280;9346;52.006;4.720;2024-01-25T09:02:40;102846.25;;;5.74;100.00
18436;BME280;9346;52.006;4.720;2024-01-25T09:05:08;102845.88;;;5.77;100.00
18436;BME280;9346;52.006;4.720;2024-01-25T09:07:35;102858.31;;;5.80;100.00
18436;BME280;9346;52.006;4.720;2024-01-25T09:10:02;102848.91;;;5.82;100.00
18436;BME280;9346;52.006;4.720;2024-01-25T09:12:29;102856.72;;;5.85;100.00
18436;BME280;9346;52.006;4.720;2024-01-25T09:14:58;102848.97;;;5.89;100.00
18436;BME280;9346;52.006;4.720;2024-01-25T09:17:24;102851.97;;;5.94;100.00
18436;BME280;9346;52.006;4.720;2024-01-25T09:19:51;102838.16;;;6.02;100.00
18436;BME280;9346;52.006;4.720;2024-01-25T09:22:18;102841.34;;;6.05;100.00
18436;BME280;9346;52.006;4.720;2024-01-25T09:24:45;102851.69;;;6.10;100.00
18436;BME280;9346;52.006;4.720;2024-01-25T09:27:14;102841.84;;;6.15;100.00
18436;BME280;9346;52.006;4.720;2024-01-25T09:29:41;102843.34;;;6.18;100.00
18436;BME280;9346;52.006;4.720;2024-01-25T09:32:09;102842.50;;;6.17;100.00
18436;BME280;9346;52.006;4.720;2024-01-25T09:34:37;102842.50;;;6.17;100.00
18436;BME280;9346;52.006;4.720;2024-01-25T09:37:04;102850.72;;;6.17;100.00
18436;BME280;9346;52.006;4.720;2024-01-25T09:39:31;102848.81;;;6.18;100.00
18436;BME280;9346;52.006;4.720;2024-01-25T09:41:58;102860.63;;;6.18;100.00
18436;BME280;9346;52.006;4.720;2024-01-25T09:44:25;102861.91;;;6.22;100.00
18436;BME280;9346;52.006;4.720;2024-01-25T09:46:51;102857.97;;;6.25;100.00
18436;BME280;9346;52.006;4.720;2024-01-25T09:49:20;102846.63;;;6.28;100.00
18436;BME280;9346;52.006;4.720;2024-01-25T09:51:47;102851.66;;;6.31;100.00
18436;BME280;9346;52.006;4.720;2024-01-25T09:54:17;102843.53;;;6.37;100.00
18436;BME280;9346;52.006;4.720;2024-01-25T09:56:45;102830.72;;;6.44;100.00
18436;BME280;9346;52.006;4.720;2024-01-25T09:59:13;102838.34;;;6.49;100.00
18436;BME280;9346;52.006;4.720;2024-01-25T10:01:40;102837.34;;;6.56;100.00
18436;BME280;9346;52.006;4.720;2024-01-25T10:04:07;102845.78;;;6.61;100.00
18436;BME280;9346;52.006;4.720;2024-01-25T10:06:35;102844.38;;;6.65;100.00
18436;BME280;9346;52.006;4.720;2024-01-25T10:09:04;102844.59;;;6.70;100.00
18436;BME280;9346;52.006;4.720;2024-01-25T10:11:35;102857.91;;;6.73;100.00
18436;BME280;9346;52.006;4.720;2024-01-25T10:14:02;102867.41;;;6.77;100.00
18436;BME280;9346;52.006;4.720;2024-01-25T10:16:29;102853.09;;;6.82;100.00
18436;BME280;9346;52.006;4.720;2024-01-25T10:18:56;102852.31;;;6.88;100.00
18436;BME280;9346;52.006;4.720;2024-01-25T10:21:23;102842.81;;;6.90;100.00
18436;BME280;9346;52.006;4.720;2024-01-25T10:23:51;102847.06;;;6.93;100.00
18436;BME280;9346;52.006;4.720;2024-01-25T10:26:20;102848.34;;;6.97;100.00
18436;BME280;9346;52.006;4.720;2024-01-25T10:28:51;102847.94;;;7.00;100.00
18436;BME280;9346;52.006;4.720;2024-01-25T10:31:18;102842.06;;;7.03;100.00
18436;BME280;9346;52.006;4.720;2024-01-25T10:33:46;102838.94;;;7.06;100.00
18436;BME280;9346;52.006;4.720;2024-01-25T10:36:14;102851.81;;;7.12;100.00
18436;BME280;9346;52.006;4.720;2024-01-25T10:38:42;102830.97;;;7.18;100.00
18436;BME280;9346;52.006;4.720;2024-01-25T10:41:13;102838.78;;;7.21;100.00
18436;BME280;9346;52.006;4.720;2024-01-25T10:43:40;102847.44;;;7.24;100.00
18436;BME280;9346;52.006;4.720;2024-01-25T10:46:07;102838.78;;;7.27;100.00
18436;BME280;9346;52.006;4.720;2024-01-25T10:48:34;102830.16;;;7.30;100.00
18436;BME280;9346;52.006;4.720;2024-01-25T10:51:01;102831.66;;;7.33;100.00
18436;BME280;9346;52.006;4.720;2024-01-25T10:53:29;102832.28;;;7.35;100.00
18436;BME280;9346;52.006;4.720;2024-01-25T10:55:57;102825.34;;;7.39;100.00
18436;BME280;9346;52.006;4.720;2024-01-25T10:58:30;102835.28;;;7.40;100.00
18436;BME280;9346;52.006;4.720;2024-01-25T11:00:57;102826.00;;;7.41;100.00
18436;BME280;9346;52.006;4.720;2024-01-25T11:03:26;102802.78;;;7.43;100.00
18436;BME280;9346;52.006;4.720;2024-01-25T11:05:54;102791.81;;;7.43;100.00
18436;BME280;9346;52.006;4.720;2024-01-25T11:08:21;102792.47;;;7.45;100.00
18436;BME280;9346;52.006;4.720;2024-01-25T11:10:51;102794.34;;;7.45;100.00
18436;BME280;9346;52.006;4.720;2024-01-25T11:13:25;102804.31;;;7.46;100.00
18436;BME280;9346;52.006;4.720;2024-01-25T11:15:53;102805.38;;;7.51;100.00
18436;BME280;9346;52.006;4.720;2024-01-25T11:18:20;102797.53;;;7.55;100.00
18436;BME280;9346;52.006;4.720;2024-01-25T11:20:47;102796.94;;;7.59;100.00
18436;BME280;9346;52.006;4.720;2024-01-25T11:23:15;102788.28;;;7.62;100.00
18436;BME280;9346;52.006;4.720;2024-01-25T11:25:44;102780.91;;;7.63;100.00
18436;BME280;9346;52.006;4.720;2024-01-25T11:28:14;102795.25;;;7.65;100.00
18436;BME280;9346;52.006;4.720;2024-01-25T11:30:43;102787.47;;;7.68;100.00
18436;BME280;9346;52.006;4.720;2024-01-25T11:33:11;102785.56;;;7.69;100.00
18436;BME280;9346;52.006;4.720;2024-01-25T11:35:39;102784.94;;;7.73;100.00
18436;BME280;9346;52.006;4.720;2024-01-25T11:38:07;102780.72;;;7.77;100.00
18436;BME280;9346;52.006;4.720;2024-01-25T11:40:34;102769.34;;;7.80;100.00
18436;BME280;9346;52.006;4.720;2024-01-25T11:43:01;102755.59;;;7.87;100.00
18436;BME280;9346;52.006;4.720;2024-01-25T11:45:28;102735.56;;;7.93;100.00
18436;BME280;9346;52.006;4.720;2024-01-25T11:47:57;102753.69;;;7.94;100.00
18436;BME280;9346;52.006;4.720;2024-01-25T11:50:23;102742.31;;;7.97;100.00
18436;BME280;9346;52.006;4.720;2024-01-25T11:52:50;102731.75;;;8.00;100.00
18436;BME280;9346;52.006;4.720;2024-01-25T11:55:17;102723.09;;;8.03;100.00
18436;BME280;9346;52.006;4.720;2024-01-25T11:57:44;102720.13;;;8.11;100.00
18436;BME280;9346;52.006;4.720;2024-01-25T12:00:14;102705.16;;;8.14;100.00
18436;BME280;9346;52.006;4.720;2024-01-25T12:02:42;102718.03;;;8.20;100.00
18436;BME280;9346;52.006;4.720;2024-01-25T12:05:11;102709.16;;;8.24;100.00
18436;BME280;9346;52.006;4.720;2024-01-25T12:07:39;102708.31;;;8.30;100.00
18436;BME280;9346;52.006;4.720;2024-01-25T12:10:07;102703.03;;;8.35;100.00
18436;BME280;9346;52.006;4.720;2024-01-25T12:12:36;102691.41;;;8.40;100.00
18436;BME280;9346;52.006;4.720;2024-01-25T12:15:05;102685.25;;;8.44;100.00
18436;BME280;9346;52.006;4.720;2024-01-25T12:17:34;102688.63;;;8.46;100.00
18436;BME280;9346;52.006;4.720;2024-01-25T12:20:02;102677.41;;;8.48;100.00
18436;BME280;9346;52.006;4.720;2024-01-25T12:22:34;102676.34;;;8.55;100.00
18436;BME280;9346;52.006;4.720;2024-01-25T12:25:01;102675.06;;;8.58;100.00
18436;BME280;9346;52.006;4.720;2024-01-25T12:27:28;102670.19;;;8.60;100.00
18436;BME280;9346;52.006;4.720;2024-01-25T12:29:58;102663.41;;;8.62;100.00
18436;BME280;9346;52.006;4.720;2024-01-25T12:32:24;102667.25;;;8.61;100.00
18436;BME280;9346;52.006;4.720;2024-01-25T12:34:55;102654.97;;;8.64;100.00
18436;BME280;9346;52.006;4.720;2024-01-25T12:37:22;102650.31;;;8.64;100.00
18436;BME280;9346;52.006;4.720;2024-01-25T12:39:54;102641.00;;;8.65;100.00
18436;BME280;9346;52.006;4.720;2024-01-25T12:42:22;102637.63;;;8.70;100.00
18436;BME280;9346;52.006;4.720;2024-01-25T12:44:53;102631.69;;;8.73;100.00
18436;BME280;9346;52.006;4.720;2024-01-25T12:47:20;102628.72;;;8.74;100.00
18436;BME280;9346;52.006;4.720;2024-01-25T12:49:47;102629.94;;;8.78;100.00
18436;BME280;9346;52.006;4.720;2024-01-25T12:52:15;102631.41;;;8.81;100.00
18436;BME280;9346;52.006;4.720;2024-01-25T12:54:42;102634.34;;;8.86;100.00
18436;BME280;9346;52.006;4.720;2024-01-25T12:57:11;102629.50;;;8.88;100.00
18436;BME280;9346;52.006;4.720;2024-01-25T12:59:38;102638.56;;;8.88;100.00
18436;BME280;9346;52.006;4.720;2024-01-25T13:02:07;102637.53;;;8.89;100.00